Time;durP1;ratioP1;P1;durP2;ratioP2;P2;SDS_P1;SDS_P2;PMS_P1;PMS_P2;Temp;Humidity;BMP_temperature;BMP_pressure;BME280_temperature;BME280_humidity;BME280_pressure;Samples;Min_cycle;Max_cycle;Signal;HPM_P1;HPM_P2
2021/04/22 00:01:59;;;;;;;;;;;;;;;30.91;22.95;101098.69;5098373;28;1005;-29
2021/04/22 00:04:24;;;;;;;;;;;;;;;31.20;22.57;101100.50;5098011;28;1893;-28
2021/04/22 00:06:50;;;;;;;;;;;;;;;31.27;22.64;101107.63;5098915;28;815;-30
2021/04/22 00:09:15;;;;;;;;;;;;;;;31.19;22.40;101102.38;5098607;28;779;-25
2021/04/22 00:11:40;;;;;;;;;;;;;;;30.99;22.47;101100.41;5102843;28;1181;-33
2021/04/22 00:14:06;;;;;;;;;;;;;;;31.13;22.63;101111.34;5118643;28;819;-24
2021/04/22 00:16:31;;;;;;;;;;;;;;;31.26;22.54;101116.00;5114129;28;1001;-25
2021/04/22 00:18:57;;;;;;;;;;;;;;;31.30;22.60;101113.72;5098245;28;760;-26
2021/04/22 00:21:22;;;;;;;;;;;;;;;31.16;22.33;101113.66;5098379;28;815;-32
2021/04/22 00:23:47;;;;;;;;;;;;;;;30.73;22.97;101115.47;5098259;28;1909;-29
2021/04/22 00:26:12;;;;;;;;;;;;;;;31.16;22.71;101111.75;5098051;28;780;-25
2021/04/22 00:28:38;;;;;;;;;;;;;;;31.28;22.70;101116.63;5097463;28;918;-29
2021/04/22 00:31:03;;;;;;;;;;;;;;;31.16;22.47;101111.75;5098387;28;796;-29
2021/04/22 00:33:28;;;;;;;;;;;;;;;30.82;22.79;101108.03;5092935;28;1252;-26
2021/04/22 00:35:54;;;;;;;;;;;;;;;30.91;23.06;101101.38;5077743;28;795;-28
2021/04/22 00:38:19;;;;;;;;;;;;;;;31.19;23.01;101105.09;5077416;28;967;-27
2021/04/22 00:40:45;;;;;;;;;;;;;;;31.03;21.92;101103.56;5077913;28;755;-32
2021/04/22 00:43:11;;;;;;;;;;;;;;;30.83;21.76;101098.03;5077670;28;794;-31
2021/04/22 00:45:42;;;;;;;;;;;;;;;30.85;22.30;101101.34;5078890;28;2072;-31
2021/04/22 00:48:07;;;;;;;;;;;;;;;31.01;22.32;101102.91;5096625;28;950;-28
2021/04/22 00:50:33;;;;;;;;;;;;;;;31.00;22.26;101107.50;5097849;28;794;-28
2021/04/22 00:52:59;;;;;;;;;;;;;;;31.17;21.91;101107.16;5097987;28;708;-25
2021/04/22 00:55:25;;;;;;;;;;;;;;;31.20;22.07;101100.50;5097529;28;862;-30
2021/04/22 00:57:50;;;;;;;;;;;;;;;31.03;21.85;101101.66;5097813;28;811;-31
2021/04/22 01:00:20;;;;;;;;;;;;;;;30.75;22.02;101107.97;5097562;28;835;-26
2021/04/22 01:02:45;;;;;;;;;;;;;;;30.98;21.95;101106.03;5097409;28;985;-27
2021/04/22 01:05:11;;;;;;;;;;;;;;;31.04;22.07;101106.09;5097498;28;1955;-32
2021/04/22 01:07:39;;;;;;;;;;;;;;;31.09;22.04;101110.06;5097340;28;779;-26
2021/04/22 01:10:05;;;;;;;;;;;;;;;30.83;21.92;101098.84;5095947;28;788;-27
2021/04/22 01:12:30;;;;;;;;;;;;;;;30.61;22.18;101098.06;5109082;28;1118;-28
2021/04/22 01:14:56;;;;;;;;;;;;;;;30.82;22.21;101101.75;5115978;28;1100;-27
2021/04/22 01:17:21;;;;;;;;;;;;;;;30.96;22.08;101103.53;5106097;28;989;-30
2021/04/22 01:19:46;;;;;;;;;;;;;;;31.03;21.77;101100.84;5097372;28;787;-30
2021/04/22 01:22:12;;;;;;;;;;;;;;;31.04;21.85;101105.22;5096794;28;847;-28
2021/04/22 01:24:37;;;;;;;;;;;;;;;31.06;21.45;101099.59;5097233;28;1964;-29
2021/04/22 01:27:03;;;;;;;;;;;;;;;30.70;21.87;101101.47;5095650;28;1114;-32
2021/04/22 01:29:28;;;;;;;;;;;;;;;30.41;22.55;101098.75;5097068;28;751;-25
2021/04/22 01:31:53;;;;;;;;;;;;;;;30.81;22.27;101103.66;5096987;28;954;-27
2021/04/22 01:34:19;;;;;;;;;;;;;;;30.84;22.04;101103.25;5097140;28;886;-26
2021/04/22 01:36:44;;;;;;;;;;;;;;;31.01;21.85;101108.34;5097128;28;731;-31
2021/04/22 01:39:10;;;;;;;;;;;;;;;30.80;21.71;101110.09;5096766;28;878;-29
2021/04/22 01:41:35;;;;;;;;;;;;;;;30.63;21.94;101104.97;5096948;28;752;-32
2021/04/22 01:44:00;;;;;;;;;;;;;;;30.55;22.42;101113.25;5096670;28;1913;-30
2021/04/22 01:46:26;;;;;;;;;;;;;;;30.70;22.24;101123.19;5095804;28;1656;-25
2021/04/22 01:48:51;;;;;;;;;;;;;;;30.81;21.98;101127.25;5096930;28;752;-29
2021/04/22 01:51:17;;;;;;;;;;;;;;;30.88;21.83;101125.44;5096863;28;768;-26
2021/04/22 01:53:42;;;;;;;;;;;;;;;30.88;21.64;101118.09;5096950;28;863;-25
2021/04/22 01:56:07;;;;;;;;;;;;;;;30.65;21.87;101116.47;5096798;28;744;-26
2021/04/22 01:58:32;;;;;;;;;;;;;;;30.61;22.14;101117.91;5097074;28;804;-31
2021/04/22 02:00:58;;;;;;;;;;;;;;;30.77;21.93;101115.91;5096915;28;863;-26
2021/04/22 02:03:23;;;;;;;;;;;;;;;30.86;21.95;101117.47;5095865;28;994;-29
2021/04/22 02:05:49;;;;;;;;;;;;;;;30.94;21.94;101115.63;5096504;28;1906;-27
2021/04/22 02:08:15;;;;;;;;;;;;;;;30.86;21.74;101114.75;5096564;28;807;-32
2021/04/22 02:10:40;;;;;;;;;;;;;;;30.62;21.90;101116.03;5096668;28;820;-32
2021/04/22 02:13:06;;;;;;;;;;;;;;;30.53;22.08;101118.88;5113071;28;1166;-28
2021/04/22 02:15:31;;;;;;;;;;;;;;;30.64;21.97;101117.50;5116793;28;761;-30
2021/04/22 02:17:56;;;;;;;;;;;;;;;30.72;22.00;101127.38;5100034;28;945;-25
2021/04/22 02:20:22;;;;;;;;;;;;;;;30.84;21.96;101122.25;5096575;28;835;-28
2021/04/22 02:22:47;;;;;;;;;;;;;;;30.89;21.86;101127.09;5097044;28;755;-24
2021/04/22 02:25:13;;;;;;;;;;;;;;;30.98;21.84;101122.34;5096376;28;1905;-32
2021/04/22 02:27:38;;;;;;;;;;;;;;;30.67;21.94;101127.13;5096423;28;808;-26
2021/04/22 02:30:08;;;;;;;;;;;;;;;30.31;22.38;101126.25;5096496;28;794;-31
2021/04/22 02:32:33;;;;;;;;;;;;;;;30.67;22.04;101127.97;5096175;28;954;-27
2021/04/22 02:34:59;;;;;;;;;;;;;;;30.73;22.14;101123.59;5096538;28;775;-25
2021/04/22 02:37:24;;;;;;;;;;;;;;;30.89;21.88;101135.25;5096242;28;863;-28
2021/04/22 02:39:49;;;;;;;;;;;;;;;30.82;21.68;101126.19;5096494;28;795;-30
2021/04/22 02:42:14;;;;;;;;;;;;;;;30.54;22.05;101130.59;5096557;28;823;-25
2021/04/22 02:44:40;;;;;;;;;;;;;;;30.28;22.48;101124.75;5096174;28;1913;-30
2021/04/22 02:47:05;;;;;;;;;;;;;;;30.68;21.92;101126.94;5095326;28;1672;-26
2021/04/22 02:49:30;;;;;;;;;;;;;;;30.74;21.98;101129.88;5096088;28;818;-31
2021/04/22 02:51:56;;;;;;;;;;;;;;;30.84;21.78;101130.41;5097285;28;740;-25
2021/04/22 02:54:21;;;;;;;;;;;;;;;30.83;21.92;101130.63;5099839;28;862;-29
2021/04/22 02:56:46;;;;;;;;;;;;;;;30.87;21.71;101130.00;5099770;28;767;-25
2021/04/22 02:59:11;;;;;;;;;;;;;;;30.57;21.97;101132.91;5099966;28;791;-30
2021/04/22 03:01:37;;;;;;;;;;;;;;;30.23;22.56;101132.63;5097290;28;1130;-26
2021/04/22 03:04:02;;;;;;;;;;;;;;;30.71;21.81;101133.00;5099758;28;1965;-27
2021/04/22 03:06:27;;;;;;;;;;;;;;;30.87;21.78;101138.16;5099179;28;772;-30
2021/04/22 03:08:53;;;;;;;;;;;;;;;30.89;21.58;101138.81;5099599;28;850;-31
2021/04/22 03:11:18;;;;;;;;;;;;;;;30.99;21.60;101132.16;5101109;28;1169;-27
2021/04/22 03:13:43;;;;;;;;;;;;;;;30.82;21.65;101139.78;5120098;28;751;-29
2021/04/22 03:16:08;;;;;;;;;;;;;;;30.58;21.76;101142.72;5119301;28;1005;-25
2021/04/22 03:18:34;;;;;;;;;;;;;;;30.56;22.21;101142.09;5098615;28;939;-26
2021/04/22 03:20:59;;;;;;;;;;;;;;;30.80;21.82;101142.69;5099190;28;831;-28
2021/04/22 03:23:24;;;;;;;;;;;;;;;30.78;21.76;101140.16;5099440;28;759;-23
2021/04/22 03:25:50;;;;;;;;;;;;;;;30.73;21.44;101147.22;5099204;28;1910;-24
2021/04/22 03:28:15;;;;;;;;;;;;;;;30.68;20.93;101158.66;5099454;28;839;-25
2021/04/22 03:30:40;;;;;;;;;;;;;;;30.28;21.18;101151.06;5099305;28;808;-23
2021/04/22 03:33:05;;;;;;;;;;;;;;;29.74;21.99;101154.03;5098850;28;1064;-27
2021/04/22 03:35:31;;;;;;;;;;;;;;;29.60;22.64;101149.47;5098824;28;819;-32
2021/04/22 03:37:56;;;;;;;;;;;;;;;30.37;21.74;101162.59;5099003;28;743;-24
2021/04/22 03:40:22;;;;;;;;;;;;;;;29.92;22.57;101163.59;5098759;28;972;-26
2021/04/22 03:42:48;;;;;;;;;;;;;;;28.76;23.98;101160.38;5098920;28;796;-26
2021/04/22 03:45:14;;;;;;;;;;;;;;;28.42;19.14;101160.69;5098656;28;1967;-23
2021/04/22 03:47:39;;;;;;;;;;;;;;;27.13;20.07;101174.31;5097568;28;1672;-24
2021/04/22 03:50:05;;;;;;;;;;;;;;;26.36;20.72;101167.47;5098612;28;776;-25
2021/04/22 03:52:31;;;;;;;;;;;;;;;25.50;23.25;101161.13;5098985;28;795;-26
2021/04/22 03:54:56;;;;;;;;;;;;;;;25.63;24.58;101170.63;5098655;28;842;-31
2021/04/22 03:57:21;;;;;;;;;;;;;;;26.49;22.94;101175.88;5098740;28;799;-31
2021/04/22 03:59:47;;;;;;;;;;;;;;;25.36;23.20;101170.66;5098808;28;759;-23
2021/04/22 04:02:12;;;;;;;;;;;;;;;25.53;23.52;101168.88;5098173;28;954;-33
2021/04/22 04:04:37;;;;;;;;;;;;;;;25.04;23.10;101175.69;5098510;28;1890;-25
2021/04/22 04:07:02;;;;;;;;;;;;;;;25.48;22.85;101182.00;5098707;28;775;-27
2021/04/22 04:09:28;;;;;;;;;;;;;;;25.55;22.03;101188.44;5098398;28;756;-26
2021/04/22 04:11:53;;;;;;;;;;;;;;;25.29;22.35;101183.91;5104634;28;1134;-25
2021/04/22 04:14:19;;;;;;;;;;;;;;;25.00;22.47;101186.94;5118829;28;823;-25
2021/04/22 04:16:44;;;;;;;;;;;;;;;24.53;22.95;101184.38;5112068;28;961;-25
2021/04/22 04:19:09;;;;;;;;;;;;;;;24.78;22.85;101189.97;5097980;28;780;-26
2021/04/22 04:21:35;;;;;;;;;;;;;;;25.21;23.15;101196.50;5098287;28;827;-32
2021/04/22 04:24:00;;;;;;;;;;;;;;;25.41;23.44;101197.09;5098125;28;1898;-26
2021/04/22 04:26:25;;;;;;;;;;;;;;;25.52;23.34;101193.28;5098254;28;767;-25
2021/04/22 04:28:51;;;;;;;;;;;;;;;25.61;23.37;101203.09;5098140;28;783;-23
2021/04/22 04:31:16;;;;;;;;;;;;;;;25.59;23.44;101201.56;5097646;28;954;-35
2021/04/22 04:33:42;;;;;;;;;;;;;;;25.58;23.40;101202.56;5098048;28;732;-23
2021/04/22 04:36:07;;;;;;;;;;;;;;;25.58;23.62;101207.94;5098033;28;791;-24
2021/04/22 04:38:32;;;;;;;;;;;;;;;25.53;23.82;101203.91;5098042;28;713;-24
2021/04/22 04:40:58;;;;;;;;;;;;;;;25.58;23.69;101203.41;5098347;28;823;-22
2021/04/22 04:43:23;;;;;;;;;;;;;;;25.57;23.76;101209.81;5097566;28;1097;-23
2021/04/22 04:45:48;;;;;;;;;;;;;;;25.82;23.76;101215.34;5097343;28;1971;-23
2021/04/22 04:48:14;;;;;;;;;;;;;;;26.29;23.02;101222.03;5097438;28;939;-23
2021/04/22 04:50:39;;;;;;;;;;;;;;;25.92;23.67;101218.72;5097765;28;755;-23
2021/04/22 04:53:04;;;;;;;;;;;;;;;25.77;24.02;101223.06;5098148;28;727;-31
2021/04/22 04:55:29;;;;;;;;;;;;;;;25.70;23.99;101224.72;5097544;28;835;-23
2021/04/22 04:57:55;;;;;;;;;;;;;;;25.54;24.47;101218.22;5097611;28;759;-24
2021/04/22 05:00:20;;;;;;;;;;;;;;;26.06;24.10;101224.50;5097670;28;740;-27
2021/04/22 05:02:46;;;;;;;;;;;;;;;26.27;23.57;101226.75;5097329;28;1004;-24
2021/04/22 05:05:11;;;;;;;;;;;;;;;26.05;23.80;101228.22;5097545;28;1906;-24
2021/04/22 05:07:37;;;;;;;;;;;;;;;25.96;24.08;101226.50;5097570;28;750;-23
2021/04/22 05:10:03;;;;;;;;;;;;;;;25.77;24.35;101223.91;5097359;28;723;-23
2021/04/22 05:12:28;;;;;;;;;;;;;;;26.04;24.42;101230.06;5108417;28;1130;-24
2021/04/22 05:14:53;;;;;;;;;;;;;;;26.67;23.47;101225.28;5117594;28;751;-25
2021/04/22 05:17:19;;;;;;;;;;;;;;;26.55;23.28;101225.63;5106012;28;981;-24
2021/04/22 05:19:44;;;;;;;;;;;;;;;26.29;23.56;101232.81;5097369;28;823;-25
2021/04/22 05:22:10;;;;;;;;;;;;;;;26.16;24.10;101235.13;5097195;28;894;-23
2021/04/22 05:24:35;;;;;;;;;;;;;;;25.99;24.35;101237.78;5097171;28;1967;-34
2021/04/22 05:27:00;;;;;;;;;;;;;;;25.71;24.94;101237.19;5096975;28;854;-29
2021/04/22 05:29:25;;;;;;;;;;;;;;;26.27;24.15;101234.84;5094711;28;884;-26
2021/04/22 05:31:51;;;;;;;;;;;;;;;26.16;24.03;101240.53;5095179;28;855;-23
2021/04/22 05:34:16;;;;;;;;;;;;;;;26.22;24.02;101239.91;5096575;28;819;-28
2021/04/22 05:36:41;;;;;;;;;;;;;;;25.96;24.51;101242.69;5096641;28;803;-30
2021/04/22 05:39:07;;;;;;;;;;;;;;;26.13;24.26;101241.72;5096488;28;804;-28
2021/04/22 05:41:33;;;;;;;;;;;;;;;26.21;24.01;101240.88;5097070;28;735;-27
2021/04/22 05:43:58;;;;;;;;;;;;;;;26.20;24.07;101239.22;5096760;28;1914;-23
2021/04/22 05:46:24;;;;;;;;;;;;;;;26.14;24.09;101235.31;5089067;28;1644;-26
2021/04/22 05:48:49;;;;;;;;;;;;;;;26.16;24.24;101237.84;5096897;28;840;-26
2021/04/22 05:51:14;;;;;;;;;;;;;;;26.01;24.86;101243.88;5096794;28;720;-32
2021/04/22 05:53:40;;;;;;;;;;;;;;;25.98;24.97;101241.50;5096812;28;764;-26
2021/04/22 05:56:05;;;;;;;;;;;;;;;25.90;24.89;101242.31;5096834;28;835;-28
2021/04/22 05:58:30;;;;;;;;;;;;;;;25.86;24.90;101242.81;5095012;28;1104;-27
2021/04/22 06:00:56;;;;;;;;;;;;;;;25.90;24.93;101250.41;5096958;28;799;-25
2021/04/22 06:03:21;;;;;;;;;;;;;;;25.98;24.66;101249.59;5096669;28;935;-25
2021/04/22 06:05:46;;;;;;;;;;;;;;;25.87;24.76;101248.03;5096733;28;1910;-27
2021/04/22 06:08:11;;;;;;;;;;;;;;;26.01;24.58;101257.34;5096834;28;776;-26
2021/04/22 06:10:38;;;;;;;;;;;;;;;25.97;24.87;101252.44;5096800;28;828;-29
2021/04/22 06:13:03;;;;;;;;;;;;;;;26.02;25.11;101253.66;5112513;28;1197;-33
2021/04/22 06:15:28;;;;;;;;;;;;;;;25.97;25.15;101255.13;5117065;28;794;-28
2021/04/22 06:17:54;;;;;;;;;;;;;;;26.03;25.30;101247.25;5100681;28;997;-30
2021/04/22 06:20:20;;;;;;;;;;;;;;;26.09;24.91;101240.34;5096274;28;786;-28
2021/04/22 06:22:45;;;;;;;;;;;;;;;26.14;24.63;101247.97;5096682;28;791;-33
2021/04/22 06:25:11;;;;;;;;;;;;;;;26.22;24.82;101252.53;5096477;28;1901;-27
2021/04/22 06:27:37;;;;;;;;;;;;;;;26.27;24.59;101244.78;5098692;28;768;-35
2021/04/22 06:30:02;;;;;;;;;;;;;;;26.36;24.90;101248.38;5100620;28;779;-28
2021/04/22 06:32:28;;;;;;;;;;;;;;;26.46;25.15;101249.06;5100073;28;946;-28
2021/04/22 06:34:53;;;;;;;;;;;;;;;26.56;25.42;101254.28;5100224;28;783;-34
2021/04/22 06:37:18;;;;;;;;;;;;;;;26.50;25.46;101250.41;5100380;28;818;-26
2021/04/22 06:39:44;;;;;;;;;;;;;;;26.32;25.95;101247.84;5100235;28;818;-23
2021/04/22 06:42:09;;;;;;;;;;;;;;;26.47;25.96;101247.22;5103858;28;1030;-26
2021/04/22 06:44:34;;;;;;;;;;;;;;;26.59;25.90;101247.72;5093145;28;1918;-26
2021/04/22 06:47:00;;;;;;;;;;;;;;;26.58;25.85;101248.72;5089188;28;1372;-24
2021/04/22 06:49:26;;;;;;;;;;;;;;;26.57;25.79;101245.19;5099702;28;863;-34
2021/04/22 06:51:51;;;;;;;;;;;;;;;26.74;25.76;101246.03;5099805;28;841;-25
2021/04/22 06:54:16;;;;;;;;;;;;;;;26.74;25.76;101245.22;5100133;28;840;-28
2021/04/22 06:56:42;;;;;;;;;;;;;;;26.82;25.67;101250.59;5099684;28;803;-30
2021/04/22 06:59:07;;;;;;;;;;;;;;;26.96;25.79;101251.78;5099760;28;847;-41
2021/04/22 07:01:32;;;;;;;;;;;;;;;26.82;25.97;101252.47;5099502;28;993;-45
2021/04/22 07:03:58;;;;;;;;;;;;;;;26.68;26.02;101259.34;5099937;28;1997;-46
2021/04/22 07:06:23;;;;;;;;;;;;;;;26.75;26.00;101260.38;5099632;28;771;-47
2021/04/22 07:08:48;;;;;;;;;;;;;;;26.77;25.89;101256.53;5099838;28;740;-28
2021/04/22 07:11:14;;;;;;;;;;;;;;;26.69;26.02;101258.38;5100071;28;1190;-46
2021/04/22 07:13:39;;;;;;;;;;;;;;;26.70;26.15;101265.44;5098602;28;807;-24
2021/04/22 07:16:05;;;;;;;;;;;;;;;26.69;26.15;101261.91;5099333;28;819;-47
2021/04/22 07:18:30;;;;;;;;;;;;;;;26.74;26.17;101262.22;5078401;28;1286;-45
2021/04/22 07:20:55;;;;;;;;;;;;;;;26.71;26.55;101259.03;5079162;28;792;-45
2021/04/22 07:23:21;;;;;;;;;;;;;;;26.53;26.58;101266.28;5085778;28;891;-43
2021/04/22 07:25:48;;;;;;;;;;;;;;;26.50;26.61;101271.16;5099257;28;1894;-30
2021/04/22 07:28:13;;;;;;;;;;;;;;;26.41;26.93;101271.13;5099355;28;767;-55
2021/04/22 07:30:38;;;;;;;;;;;;;;;26.37;27.01;101263.53;5099063;28;804;-34
2021/04/22 07:33:04;;;;;;;;;;;;;;;26.42;26.85;101269.28;5098801;28;981;-33
2021/04/22 07:35:30;;;;;;;;;;;;;;;26.40;26.99;101265.91;5099079;28;839;-52
2021/04/22 07:37:55;;;;;;;;;;;;;;;26.40;27.09;101261.38;5098612;28;763;-37
2021/04/22 07:40:21;;;;;;;;;;;;;;;26.47;27.04;101266.94;5098814;28;768;-32
2021/04/22 07:42:47;;;;;;;;;;;;;;;26.51;27.01;101265.59;5099183;28;882;-33
2021/04/22 07:45:12;;;;;;;;;;;;;;;26.49;26.92;101264.06;5098321;28;1909;-31
2021/04/22 07:47:38;;;;;;;;;;;;;;;26.57;27.08;101271.34;5097372;28;1688;-43
2021/04/22 07:50:10;;;;;;;;;;;;;;;26.58;26.79;101278.41;5098894;28;835;-39
2021/04/22 07:52:35;;;;;;;;;;;;;;;26.50;27.17;101271.16;5098632;28;839;-39
2021/04/22 07:55:01;;;;;;;;;;;;;;;26.52;27.07;101272.69;5098815;28;803;-40
2021/04/22 07:57:26;;;;;;;;;;;;;;;26.59;26.77;101263.91;5098590;28;890;-42
2021/04/22 07:59:52;;;;;;;;;;;;;;;26.62;26.88;101268.97;5098572;28;764;-34
2021/04/22 08:02:18;;;;;;;;;;;;;;;26.58;27.00;101267.59;5098240;28;958;-36
2021/04/22 08:04:43;;;;;;;;;;;;;;;26.60;27.20;101265.59;5098481;28;1906;-37
2021/04/22 08:07:08;;;;;;;;;;;;;;;26.58;27.34;101273.84;5098439;28;803;-35
2021/04/22 08:09:34;;;;;;;;;;;;;;;26.55;27.16;101270.66;5098677;28;810;-36
2021/04/22 08:12:00;;;;;;;;;;;;;;;26.61;27.11;101272.69;5105489;28;1110;-36
2021/04/22 08:14:25;;;;;;;;;;;;;;;26.50;27.32;101272.00;5118502;28;799;-40
2021/04/22 08:16:50;;;;;;;;;;;;;;;26.45;27.31;101277.06;5111174;28;1009;-37
2021/04/22 08:19:16;;;;;;;;;;;;;;;26.38;27.31;101273.31;5098588;28;851;-38
2021/04/22 08:21:41;;;;;;;;;;;;;;;26.38;27.30;101268.78;5098112;28;841;-39
2021/04/22 08:24:07;;;;;;;;;;;;;;;26.35;27.43;101265.56;5098142;28;1965;-35
2021/04/22 08:26:32;;;;;;;;;;;;;;;26.34;27.44;101270.09;5098056;28;836;-37
2021/04/22 08:28:57;;;;;;;;;;;;;;;26.37;27.65;101271.63;5097993;28;799;-38
2021/04/22 08:31:24;;;;;;;;;;;;;;;26.41;27.38;101271.13;5097369;28;998;-37
2021/04/22 08:33:53;;;;;;;;;;;;;;;26.38;27.35;101271.47;5098201;28;811;-38
2021/04/22 08:36:18;;;;;;;;;;;;;;;26.33;27.50;101267.56;5097922;28;735;-40
2021/04/22 08:38:43;;;;;;;;;;;;;;;26.63;27.07;101262.56;5098037;28;755;-38
2021/04/22 08:41:09;;;;;;;;;;;;;;;26.81;26.93;101264.28;5098035;28;763;-40
2021/04/22 08:43:35;;;;;;;;;;;;;;;26.87;27.00;101263.59;5097559;28;1079;-39
2021/04/22 08:46:00;;;;;;;;;;;;;;;26.82;26.91;101268.66;5097291;28;1913;-37
2021/04/22 08:48:27;;;;;;;;;;;;;;;27.22;26.40;101269.69;5097153;28;978;-36
2021/04/22 08:50:52;;;;;;;;;;;;;;;27.24;26.43;101272.22;5096609;28;868;-34
2021/04/22 08:53:19;;;;;;;;;;;;;;;27.26;26.56;101272.84;5097519;28;837;-35
2021/04/22 08:55:44;;;;;;;;;;;;;;;27.35;26.43;101271.00;5097199;28;807;-36
2021/04/22 08:58:10;;;;;;;;;;;;;;;27.30;26.72;101276.06;5097481;28;752;-37
2021/04/22 09:00:45;;;;;;;;;;;;;;;27.38;26.53;101267.94;5097270;28;847;-33
2021/04/22 09:03:10;;;;;;;;;;;;;;;27.44;26.23;101274.53;5096872;28;1029;-33
2021/04/22 09:05:36;;;;;;;;;;;;;;;27.33;26.58;101273.00;5097237;28;1901;-37
2021/04/22 09:08:01;;;;;;;;;;;;;;;27.31;26.36;101275.06;5097511;28;779;-41
2021/04/22 09:10:27;;;;;;;;;;;;;;;27.41;26.33;101267.59;5097263;28;751;-34
2021/04/22 09:12:56;;;;;;;;;;;;;;;27.47;26.44;101263.38;5111748;28;1157;-36
2021/04/22 09:15:21;;;;;;;;;;;;;;;27.40;26.52;101263.22;5111195;28;986;-34
2021/04/22 09:17:47;;;;;;;;;;;;;;;27.35;26.47;101263.75;5095615;28;1001;-40
2021/04/22 09:20:12;;;;;;;;;;;;;;;27.37;26.74;101259.03;5095511;28;1286;-38
2021/04/22 09:22:39;;;;;;;;;;;;;;;27.02;25.61;101253.84;5097246;28;807;-39
2021/04/22 09:25:17;;;;;;;;;;;;;;;26.81;27.11;101250.78;5097290;28;1905;-35
2021/04/22 09:27:43;;;;;;;;;;;;;;;26.87;27.12;101247.41;5092936;28;1431;-37
2021/04/22 09:30:08;;;;;;;;;;;;;;;26.86;27.30;101254.66;5096891;28;810;-39
2021/04/22 09:32:36;;;;;;;;;;;;;;;26.73;27.54;101249.75;5096421;28;938;-38
2021/04/22 09:35:08;;;;;;;;;;;;;;;26.70;27.65;101239.31;5096702;28;866;-38
2021/04/22 09:37:38;;;;;;;;;;;;;;;26.81;27.47;101243.50;5096776;28;798;-35
2021/04/22 09:40:15;;;;;;;;;;;;;;;26.76;27.49;101237.78;5095249;28;973;-37
2021/04/22 09:42:40;;;;;;;;;;;;;;;26.84;27.09;101240.47;5097024;28;798;-38
2021/04/22 09:45:07;;;;;;;;;;;;;;;26.85;27.16;101236.78;5096323;28;1997;-38
2021/04/22 09:47:32;;;;;;;;;;;;;;;26.93;27.32;101227.81;5095401;28;1605;-38
2021/04/22 09:49:59;;;;;;;;;;;;;;;27.05;27.10;101235.59;5097180;28;755;-37
2021/04/22 09:52:31;;;;;;;;;;;;;;;26.83;27.23;101233.38;5096761;28;791;-35
2021/04/22 09:54:57;;;;;;;;;;;;;;;26.80;27.47;101232.88;5096982;28;733;-36
2021/04/22 09:57:25;;;;;;;;;;;;;;;26.81;27.30;101230.00;5096915;28;814;-34
2021/04/22 09:59:51;;;;;;;;;;;;;;;26.92;27.25;101225.28;5096773;28;783;-38
2021/04/22 10:02:16;;;;;;;;;;;;;;;26.84;27.34;101228.84;5099608;28;1373;-37
2021/04/22 10:04:46;;;;;;;;;;;;;;;26.90;27.33;101226.31;5100455;28;1962;-38
2021/04/22 10:07:24;;;;;;;;;;;;;;;27.01;27.46;101225.13;5100455;28;819;-41
2021/04/22 10:09:50;;;;;;;;;;;;;;;27.07;27.67;101230.88;5100942;28;798;-37
2021/04/22 10:12:19;;;;;;;;;;;;;;;27.39;26.64;101234.53;5099956;28;804;-36
2021/04/22 10:14:44;;;;;;;;;;;;;;;27.30;26.79;101224.75;5100866;28;786;-42
2021/04/22 10:17:14;;;;;;;;;;;;;;;27.20;26.99;101236.59;5099200;28;954;-39
2021/04/22 10:19:39;;;;;;;;;;;;;;;27.18;27.12;101235.91;5100555;28;838;-40
2021/04/22 10:22:04;;;;;;;;;;;;;;;27.21;27.20;101242.84;5100677;28;739;-41
2021/04/22 10:24:29;;;;;;;;;;;;;;;27.20;27.05;101243.84;5099166;28;1906;-34
2021/04/22 10:26:59;;;;;;;;;;;;;;;27.24;27.29;101237.91;5099693;28;808;-33
2021/04/22 10:29:24;;;;;;;;;;;;;;;27.23;27.10;101230.84;5096068;28;962;-35
2021/04/22 10:31:49;;;;;;;;;;;;;;;27.58;26.47;101232.41;5100093;28;883;-38
2021/04/22 10:34:15;;;;;;;;;;;;;;;27.96;25.76;101238.03;5094700;28;877;-34
2021/04/22 10:36:40;;;;;;;;;;;;;;;28.09;25.90;101223.94;5079702;28;795;-32
2021/04/22 10:39:06;;;;;;;;;;;;;;;28.24;25.80;101231.31;5078874;28;802;-33
2021/04/22 10:41:32;;;;;;;;;;;;;;;28.41;25.17;101232.03;5078275;28;1251;-34
2021/04/22 10:43:58;;;;;;;;;;;;;;;28.48;25.24;101227.59;5090820;28;1055;-43
2021/04/22 10:46:23;;;;;;;;;;;;;;;28.51;25.11;101234.50;5097042;28;1905;-43
2021/04/22 10:48:49;;;;;;;;;;;;;;;28.56;25.04;101228.56;5099857;28;760;-44
2021/04/22 10:51:14;;;;;;;;;;;;;;;28.60;24.94;101227.16;5099911;28;823;-43
2021/04/22 10:53:39;;;;;;;;;;;;;;;28.67;24.79;101230.84;5100046;28;740;-49
2021/04/22 10:56:05;;;;;;;;;;;;;;;28.77;24.62;101225.19;5098626;28;830;-37
2021/04/22 10:58:33;;;;;;;;;;;;;;;28.80;24.91;101219.41;5100242;28;743;-45
2021/04/22 11:01:00;;;;;;;;;;;;;;;28.87;24.57;101215.94;5098800;28;1277;-44
2021/04/22 11:03:28;;;;;;;;;;;;;;;28.91;24.53;101215.38;5099075;28;998;-34
2021/04/22 11:05:54;;;;;;;;;;;;;;;28.84;25.01;101211.75;5099618;28;1969;-34
2021/04/22 11:08:28;;;;;;;;;;;;;;;28.80;24.85;101216.69;5100043;28;751;-33
2021/04/22 11:10:55;;;;;;;;;;;;;;;28.79;24.91;101209.59;5099547;28;814;-30
2021/04/22 11:13:25;;;;;;;;;;;;;;;28.83;24.48;101201.94;5108250;28;1186;-42
2021/04/22 11:15:54;;;;;;;;;;;;;;;28.94;24.79;101192.53;5099858;28;738;-34
2021/04/22 11:18:19;;;;;;;;;;;;;;;29.06;24.61;101192.94;5097418;28;998;-35
2021/04/22 11:20:45;;;;;;;;;;;;;;;29.10;24.77;101191.53;5099034;28;1002;-34
2021/04/22 11:23:16;;;;;;;;;;;;;;;29.17;24.59;101195.19;5099020;28;807;-41
2021/04/22 11:25:49;;;;;;;;;;;;;;;29.25;24.37;101191.53;5099062;28;1905;-39
2021/04/22 11:28:16;;;;;;;;;;;;;;;29.34;24.37;101195.81;5099405;28;823;-44
2021/04/22 11:30:41;;;;;;;;;;;;;;;29.34;24.19;101197.72;5098107;28;798;-47
2021/04/22 11:33:07;;;;;;;;;;;;;;;29.40;24.47;101194.25;5098488;28;934;-30
2021/04/22 11:35:32;;;;;;;;;;;;;;;29.43;24.33;101191.16;5098865;28;831;-35
2021/04/22 11:38:08;;;;;;;;;;;;;;;29.49;24.18;101186.03;5099151;28;845;-35
2021/04/22 11:40:53;;;;;;;;;;;;;;;29.36;24.47;101178.56;5099023;28;842;-36
2021/04/22 11:43:22;;;;;;;;;;;;;;;28.56;25.28;101177.16;5098577;28;832;-37
2021/04/22 11:45:51;;;;;;;;;;;;;;;28.49;25.47;101168.91;5095650;28;1914;-30
2021/04/22 11:48:16;;;;;;;;;;;;;;;28.15;26.06;101168.28;5095546;28;950;-36
2021/04/22 11:50:42;;;;;;;;;;;;;;;27.93;26.54;101173.50;5098145;28;871;-35
2021/04/22 11:53:07;;;;;;;;;;;;;;;27.99;26.62;101171.97;5099054;28;775;-35
2021/04/22 11:55:33;;;;;;;;;;;;;;;27.99;26.51;101171.97;5098787;28;843;-37
2021/04/22 11:57:59;;;;;;;;;;;;;;;27.87;26.78;101174.22;5098834;28;818;-33
2021/04/22 12:00:25;;;;;;;;;;;;;;;27.96;26.78;101170.44;5098575;28;758;-39
2021/04/22 12:02:51;;;;;;;;;;;;;;;28.01;26.38;101164.47;5098784;28;1014;-40
2021/04/22 12:05:17;;;;;;;;;;;;;;;27.94;26.52;101168.94;5098799;28;1965;-38
2021/04/22 12:07:42;;;;;;;;;;;;;;;28.01;26.53;101160.97;5098445;28;751;-43
2021/04/22 12:10:11;;;;;;;;;;;;;;;28.04;26.27;101160.59;5098577;28;736;-42
2021/04/22 12:12:36;;;;;;;;;;;;;;;27.99;26.52;101163.84;5110567;28;1130;-41
2021/04/22 12:15:01;;;;;;;;;;;;;;;27.69;26.96;101167.22;5118345;28;835;-37
2021/04/22 12:17:27;;;;;;;;;;;;;;;27.78;26.94;101161.78;5106171;28;1004;-28
2021/04/22 12:19:54;;;;;;;;;;;;;;;27.77;27.36;101160.06;5096374;28;1152;-42
2021/04/22 12:22:29;;;;;;;;;;;;;;;27.74;27.06;101154.00;5098028;28;812;-32
2021/04/22 12:24:54;;;;;;;;;;;;;;;27.70;27.33;101154.53;5096612;28;1897;-41
2021/04/22 12:27:30;;;;;;;;;;;;;;;27.68;27.02;101148.44;5098140;28;815;-36
2021/04/22 12:29:55;;;;;;;;;;;;;;;27.75;27.06;101144.03;5097743;28;879;-32
2021/04/22 12:32:20;;;;;;;;;;;;;;;27.78;27.01;101140.16;5085461;28;1029;-39
2021/04/22 12:34:46;;;;;;;;;;;;;;;27.84;27.16;101151.06;5077843;28;795;-45
2021/04/22 12:37:13;;;;;;;;;;;;;;;27.89;26.73;101144.31;5076601;28;858;-41
2021/04/22 12:39:38;;;;;;;;;;;;;;;27.82;27.10;101149.56;5077437;28;827;-32
2021/04/22 12:42:12;;;;;;;;;;;;;;;27.85;27.01;101141.09;5077847;28;791;-42
2021/04/22 12:44:37;;;;;;;;;;;;;;;27.98;26.59;101146.78;5077113;28;1882;-41
2021/04/22 12:47:03;;;;;;;;;;;;;;;27.98;26.95;101149.47;5090805;28;1586;-33
2021/04/22 12:49:29;;;;;;;;;;;;;;;27.98;27.09;101149.47;5097313;28;851;-34